createdAt,value
2022-12-25T00:00:07.196Z,98370.34
2022-12-25T00:02:35.998Z,98377.53
2022-12-25T00:05:05.828Z,98382.91
2022-12-25T00:07:34.567Z,98389.09
2022-12-25T00:10:03.241Z,98383.72
2022-12-25T00:12:31.942Z,98397.13
2022-12-25T00:15:00.467Z,98406.16
2022-12-25T00:17:30.793Z,98410.50
2022-12-25T00:19:59.360Z,98414.19
2022-12-25T00:22:28.021Z,98416.88
2022-12-25T00:24:56.702Z,98419.56
2022-12-25T00:27:25.234Z,98423.06
2022-12-25T00:29:53.947Z,98431.94
2022-12-25T00:32:22.638Z,98439.13
2022-12-25T00:34:52.532Z,98427.59
2022-12-25T00:37:21.293Z,98445.31
2022-12-25T00:39:50.139Z,98441.81
2022-12-25T00:42:21.599Z,98445.31
2022-12-25T00:44:50.643Z,98445.47
2022-12-25T00:47:19.437Z,98442.78
2022-12-25T00:49:48.231Z,98443.66
2022-12-25T00:52:18.225Z,98451.69
2022-12-25T00:54:46.861Z,98457.06
2022-12-25T00:57:15.656Z,98458.72
2022-12-25T00:59:44.408Z,98465.91
2022-12-25T01:02:27.887Z,98473.94
2022-12-25T01:04:57.695Z,98474.78
2022-12-25T01:07:27.993Z,98475.78
2022-12-25T01:10:14.188Z,98476.63
2022-12-25T01:12:43.698Z,98479.31
2022-12-25T01:15:12.763Z,98480.28
2022-12-25T01:17:42.140Z,98486.50
2022-12-25T01:20:11.503Z,98491.88
2022-12-25T01:22:41.673Z,98494.53
2022-12-25T01:25:11.527Z,98492.69
2022-12-25T01:27:40.172Z,98496.34
2022-12-25T01:30:10.450Z,98492.69
2022-12-25T01:32:39.007Z,98493.69
2022-12-25T01:35:08.632Z,98498.88
2022-12-25T01:37:37.284Z,98504.38
2022-12-25T01:40:09.050Z,98502.56
2022-12-25T01:42:37.893Z,98514.13
2022-12-25T01:45:35.224Z,98519.63
2022-12-25T01:48:11.166Z,98512.41
2022-12-25T01:50:40.126Z,98524.00
2022-12-25T01:53:08.961Z,98526.69
2022-12-25T01:55:39.002Z,98527.50
2022-12-25T01:58:07.635Z,98519.47
2022-12-25T02:00:36.413Z,98524.97
2022-12-25T02:03:05.244Z,98526.69
2022-12-25T02:05:34.521Z,98534.72
2022-12-25T02:08:07.674Z,98528.50
2022-12-25T02:10:39.992Z,98527.66
2022-12-25T02:13:08.640Z,98531.03
2022-12-25T02:15:59.221Z,98534.72
2022-12-25T02:18:36.052Z,98535.69
2022-12-25T02:21:47.021Z,98538.38
2022-12-25T02:24:44.496Z,98533.00
2022-12-25T02:27:23.229Z,98533.84
2022-12-25T02:29:55.764Z,98538.38
2022-12-25T02:32:28.903Z,98536.53
2022-12-25T02:35:00.715Z,98533.00
2022-12-25T02:37:32.805Z,98538.38
2022-12-25T02:40:03.989Z,98532.88
2022-12-25T02:43:04.322Z,98532.19
2022-12-25T02:45:55.316Z,98533.00
2022-12-25T02:48:42.501Z,98530.34
2022-12-25T02:51:31.168Z,98525.81
2022-12-25T02:54:17.607Z,98533.00
2022-12-25T02:57:04.093Z,98537.41
2022-12-25T02:59:50.253Z,98532.03
2022-12-25T03:02:37.873Z,98530.34
2022-12-25T03:05:25.927Z,98540.06
2022-12-25T03:07:54.792Z,98544.56
2022-12-25T03:10:41.199Z,98526.81
2022-12-25T03:13:13.194Z,98526.00
2022-12-25T03:15:59.212Z,98527.66
2022-12-25T03:18:29.678Z,98529.50
2022-12-25T03:21:15.612Z,98533.00
2022-12-25T03:24:17.374Z,98535.69
2022-12-25T03:26:58.029Z,98535.69
2022-12-25T03:29:47.413Z,98538.38
2022-12-25T03:32:23.258Z,98546.41
2022-12-25T03:35:17.325Z,98545.56
2022-12-25T03:38:14.426Z,98546.59
2022-12-25T03:41:13.174Z,98548.38
2022-12-25T03:44:02.760Z,98557.13
2022-12-25T03:46:55.784Z,98552.78
2022-12-25T03:49:44.047Z,98557.13
2022-12-25T03:52:32.891Z,98553.59
2022-12-25T03:55:20.239Z,98560.81
2022-12-25T03:58:06.219Z,98571.53
2022-12-25T04:00:52.309Z,98572.50
2022-12-25T04:03:38.236Z,98574.19
2022-12-25T04:06:24.957Z,98567.00
2022-12-25T04:09:12.388Z,98575.88
2022-12-25T04:12:02.543Z,98580.38
2022-12-25T04:15:03.823Z,98588.41
2022-12-25T04:17:49.820Z,98583.91
2022-12-25T04:20:35.708Z,98590.25
2022-12-25T04:23:21.899Z,98601.81
2022-12-25T04:26:09.647Z,98593.78
2022-12-25T04:28:55.657Z,98606.34
2022-12-25T04:31:41.847Z,98609.84
2022-12-25T04:34:28.318Z,98603.66
2022-12-25T04:36:57.131Z,98605.50
2022-12-25T04:39:25.825Z,98603.66
2022-12-25T04:41:55.946Z,98599.97
2022-12-25T04:44:24.670Z,98606.34
2022-12-25T04:46:53.394Z,98600.81
2022-12-25T04:49:22.170Z,98606.34
2022-12-25T04:51:51.203Z,98603.66
2022-12-25T04:54:19.778Z,98606.34
2022-12-25T04:56:48.444Z,98608.00
2022-12-25T04:59:18.517Z,98596.44
2022-12-25T05:01:47.159Z,98600.16
2022-12-25T05:04:15.892Z,98595.63
2022-12-25T05:06:44.541Z,98598.31
2022-12-25T05:09:13.180Z,98600.97
2022-12-25T05:11:41.802Z,98602.81
2022-12-25T05:14:10.597Z,98603.66
2022-12-25T05:16:40.675Z,98612.66
2022-12-25T05:19:09.238Z,98605.50
2022-12-25T05:21:38.035Z,98611.69
2022-12-25T05:24:07.316Z,98619.72
2022-12-25T05:26:35.917Z,98610.84
2022-12-25T05:29:04.583Z,98615.34
2022-12-25T05:31:33.594Z,98621.56
2022-12-25T05:34:03.566Z,98626.94
2022-12-25T05:36:32.496Z,98618.88
2022-12-25T05:39:01.111Z,98622.53
2022-12-25T05:41:34.177Z,98628.72
2022-12-25T05:44:03.770Z,98634.09
2022-12-25T05:46:32.456Z,98636.78
2022-12-25T05:49:02.624Z,98643.00
2022-12-25T05:51:31.888Z,98638.47
2022-12-25T05:54:00.555Z,98641.16
2022-12-25T05:56:29.293Z,98636.78
2022-12-25T05:58:57.996Z,98631.41
2022-12-25T06:01:28.806Z,98627.91
2022-12-25T06:03:58.166Z,98643.00
2022-12-25T06:06:28.311Z,98639.44
2022-12-25T06:08:56.950Z,98646.66
2022-12-25T06:11:25.578Z,98639.44
2022-12-25T06:13:54.355Z,98651.88
2022-12-25T06:16:23.133Z,98662.56
2022-12-25T06:18:53.046Z,98660.88
2022-12-25T06:21:21.905Z,98663.56
2022-12-25T06:23:51.924Z,98663.56
2022-12-25T06:26:21.335Z,98672.59
2022-12-25T06:28:50.117Z,98684.97
2022-12-25T06:31:20.552Z,98676.94
2022-12-25T06:33:49.524Z,98677.94
2022-12-25T06:36:19.648Z,98688.66
2022-12-25T06:38:48.288Z,98700.22
2022-12-25T06:41:19.533Z,98689.50
2022-12-25T06:43:50.377Z,98690.34
2022-12-25T06:46:19.631Z,98687.66
2022-12-25T06:48:49.854Z,98691.34
2022-12-25T06:51:19.402Z,98697.53
2022-12-25T06:53:48.272Z,98713.59
2022-12-25T06:56:19.395Z,98713.59
2022-12-25T06:58:49.418Z,98715.44
2022-12-25T07:01:21.368Z,98725.16
2022-12-25T07:03:51.388Z,98728.84
2022-12-25T07:06:20.115Z,98736.88
2022-12-25T07:08:48.792Z,98747.59
2022-12-25T07:11:19.043Z,98747.59
2022-12-25T07:13:47.855Z,98750.66
2022-12-25T07:16:16.672Z,98774.75
2022-12-25T07:18:45.324Z,98778.56
2022-12-25T07:21:15.106Z,98782.25
2022-12-25T07:23:44.218Z,98783.09
2022-12-25T07:26:13.556Z,98781.38
2022-12-25T07:28:43.507Z,98781.25
2022-12-25T07:31:13.933Z,98784.78
2022-12-25T07:33:42.887Z,98787.44
2022-12-25T07:36:13.891Z,98794.50
2022-12-25T07:38:42.775Z,98801.53
2022-12-25T07:41:11.555Z,98798.03
2022-12-25T07:43:40.191Z,98796.88
2022-12-25T07:46:10.734Z,98792.50
2022-12-25T07:48:39.533Z,98795.19
2022-12-25T07:51:11.518Z,98786.16
2022-12-25T07:53:40.237Z,98781.78
2022-12-25T07:56:11.920Z,98783.50
2022-12-25T07:58:40.757Z,98778.78
2022-12-25T08:01:13.535Z,98774.44
2022-12-25T08:03:42.500Z,98790.38
2022-12-25T08:06:11.988Z,98783.31
2022-12-25T08:08:42.315Z,98796.56
2022-12-25T08:11:12.106Z,98793.06
2022-12-25T08:13:41.549Z,98792.06
2022-12-25T08:16:12.097Z,98789.22
2022-12-25T08:18:41.198Z,98794.59
2022-12-25T08:21:11.528Z,98796.25
2022-12-25T08:23:41.399Z,98805.00
2022-12-25T08:26:12.071Z,98794.28
2022-12-25T08:28:40.888Z,98781.72
2022-12-25T08:31:12.366Z,98778.22
2022-12-25T08:33:41.169Z,98769.16
2022-12-25T08:36:11.077Z,98770.84
2022-12-25T08:38:40.160Z,98776.19
2022-12-25T08:41:09.021Z,98778.72
2022-12-25T08:43:37.915Z,98775.03
2022-12-25T08:46:06.925Z,98778.59
2022-12-25T08:48:37.189Z,98789.13
2022-12-25T08:51:06.286Z,98800.56
2022-12-25T08:53:35.117Z,98802.41
2022-12-25T08:56:04.962Z,98812.94
2022-12-25T08:58:33.682Z,98815.63
2022-12-25T09:01:03.030Z,98809.44
2022-12-25T09:03:33.389Z,98810.25
2022-12-25T09:06:05.374Z,98823.53
2022-12-25T09:08:34.250Z,98811.97
2022-12-25T09:11:03.856Z,98810.97
2022-12-25T09:13:32.524Z,98818.16
2022-12-25T09:16:01.565Z,98817.16
2022-12-25T09:18:30.210Z,98824.22
2022-12-25T09:21:00.803Z,98833.09
2022-12-25T09:23:39.499Z,98825.06
2022-12-25T09:26:09.875Z,98825.88
2022-12-25T09:28:38.568Z,98828.56
2022-12-25T09:31:07.793Z,98823.06
2022-12-25T09:33:36.543Z,98818.56
2022-12-25T09:36:07.330Z,98827.44
2022-12-25T09:38:37.327Z,98827.44
2022-12-25T09:41:09.305Z,98832.78
2022-12-25T09:43:41.823Z,98838.16
2022-12-25T09:46:12.121Z,98839.81
2022-12-25T09:48:41.851Z,98844.34
2022-12-25T09:51:11.542Z,98843.38
2022-12-25T09:53:43.359Z,98845.19
2022-12-25T09:56:14.296Z,98844.34
2022-12-25T09:58:43.093Z,98840.69
2022-12-25T10:01:19.921Z,98839.81
2022-12-25T10:04:22.081Z,98834.31
2022-12-25T10:07:01.335Z,98831.63
2022-12-25T10:09:42.565Z,98838.00
2022-12-25T10:12:27.282Z,98835.31
2022-12-25T10:15:11.844Z,98834.47
2022-12-25T10:17:49.256Z,98835.31
2022-12-25T10:20:22.656Z,98828.97
2022-12-25T10:22:54.202Z,98825.44
2022-12-25T10:25:25.546Z,98822.75
2022-12-25T10:27:56.160Z,98825.44
2022-12-25T10:30:25.983Z,98820.91
2022-12-25T10:32:54.712Z,98818.06
2022-12-25T10:35:24.508Z,98812.88
2022-12-25T10:37:56.466Z,98818.25
2022-12-25T10:40:34.087Z,98813.72
2022-12-25T10:43:08.480Z,98806.69
2022-12-25T10:45:45.816Z,98804.00
2022-12-25T10:48:21.973Z,98799.47
2022-12-25T10:50:50.689Z,98804.84
2022-12-25T10:53:22.174Z,98808.34
2022-12-25T10:56:00.018Z,98803.84
2022-12-25T10:58:28.851Z,98798.66
2022-12-25T11:00:59.666Z,98799.47
2022-12-25T11:03:30.952Z,98797.63
2022-12-25T11:05:59.923Z,98794.97
2022-12-25T11:08:30.049Z,98787.09
2022-12-25T11:11:06.579Z,98794.13
2022-12-25T11:13:36.784Z,98798.66
2022-12-25T11:16:09.468Z,98783.41
2022-12-25T11:18:47.116Z,98781.56
2022-12-25T11:21:19.452Z,98778.03
2022-12-25T11:23:50.252Z,98781.72
2022-12-25T11:26:20.234Z,98773.53
2022-12-25T11:28:49.868Z,98770.16
2022-12-25T11:31:20.522Z,98779.88
2022-12-25T11:33:54.168Z,98771.84
2022-12-25T11:36:29.181Z,98772.00
2022-12-25T11:38:58.590Z,98775.50
2022-12-25T11:41:33.113Z,98774.66
2022-12-25T11:44:05.020Z,98781.72
2022-12-25T11:46:39.478Z,98763.94
2022-12-25T11:49:11.991Z,98758.75
2022-12-25T11:51:41.603Z,98755.22
2022-12-25T11:54:18.558Z,98757.75
2022-12-25T11:56:48.549Z,98762.41
2022-12-25T11:59:21.805Z,98762.41
2022-12-25T12:01:53.608Z,98765.09
2022-12-25T12:04:29.615Z,98765.09
2022-12-25T12:07:02.150Z,98753.53
2022-12-25T12:09:38.712Z,98754.56
2022-12-25T12:12:11.617Z,98753.53
2022-12-25T12:14:49.026Z,98752.72
2022-12-25T12:17:18.591Z,98747.34
2022-12-25T12:19:47.533Z,98750.03
2022-12-25T12:22:20.717Z,98746.50
2022-12-25T12:24:54.556Z,98739.31
2022-12-25T12:27:28.535Z,98750.16
2022-12-25T12:29:59.011Z,98745.66
2022-12-25T12:32:37.797Z,98742.13
2022-12-25T12:35:17.034Z,98748.50
2022-12-25T12:37:46.428Z,98736.94
2022-12-25T12:40:35.670Z,98756.53
2022-12-25T12:43:05.820Z,98753.84
2022-12-25T12:45:36.151Z,98745.00
2022-12-25T12:48:15.518Z,98738.75
2022-12-25T12:50:44.494Z,98735.09
2022-12-25T12:53:29.771Z,98735.25
2022-12-25T12:55:59.884Z,98729.88
2022-12-25T12:58:33.747Z,98739.63
2022-12-25T13:01:12.470Z,98746.78
2022-12-25T13:04:18.543Z,98744.13
2022-12-25T13:06:50.466Z,98752.16
2022-12-25T13:09:28.741Z,98739.75
2022-12-25T13:11:57.569Z,98751.31
2022-12-25T13:14:27.553Z,98751.31
2022-12-25T13:16:56.406Z,98746.78
2022-12-25T13:19:25.944Z,98752.16
2022-12-25T13:21:55.815Z,98754.00
2022-12-25T13:24:25.500Z,98761.19
2022-12-25T13:26:54.290Z,98745.97
2022-12-25T13:29:32.066Z,98749.66
2022-12-25T13:32:01.819Z,98747.81
2022-12-25T13:34:32.350Z,98749.66
2022-12-25T13:37:03.862Z,98761.19
2022-12-25T13:39:32.514Z,98747.81
2022-12-25T13:42:06.106Z,98755.84
2022-12-25T13:44:44.321Z,98757.69
2022-12-25T13:47:25.346Z,98755.84
2022-12-25T13:49:55.068Z,98752.47
2022-12-25T13:52:25.640Z,98743.47
2022-12-25T13:54:59.948Z,98748.81
2022-12-25T13:57:36.490Z,98755.16
2022-12-25T14:00:08.558Z,98738.09
2022-12-25T14:02:38.480Z,98724.69
2022-12-25T14:05:26.611Z,98730.19
2022-12-25T14:07:55.662Z,98732.75
2022-12-25T14:10:25.713Z,98730.91
2022-12-25T14:12:55.876Z,98737.09
2022-12-25T14:15:26.540Z,98734.41
2022-12-25T14:17:55.148Z,98749.66
2022-12-25T14:20:26.072Z,98746.97
2022-12-25T14:22:56.567Z,98752.31
2022-12-25T14:25:29.500Z,98749.66
2022-12-25T14:27:58.339Z,98747.97
2022-12-25T14:30:29.334Z,98746.13
2022-12-25T14:32:57.901Z,98740.78
2022-12-25T14:35:26.486Z,98737.25
2022-12-25T14:38:00.281Z,98724.69
2022-12-25T14:40:31.597Z,98710.47
2022-12-25T14:43:01.704Z,98700.72
2022-12-25T14:45:33.679Z,98696.38
2022-12-25T14:48:04.364Z,98694.53
2022-12-25T14:50:36.526Z,98714.13
2022-12-25T14:53:05.088Z,98717.81
2022-12-25T14:55:33.707Z,98733.72
2022-12-25T14:58:05.019Z,98732.03
2022-12-25T15:00:36.434Z,98739.06
2022-12-25T15:03:06.433Z,98740.09
2022-12-25T15:05:36.607Z,98741.75
2022-12-25T15:08:25.587Z,98754.31
2022-12-25T15:11:01.055Z,98752.47
2022-12-25T15:13:31.902Z,98753.34
2022-12-25T15:16:05.409Z,98748.94
2022-12-25T15:18:37.494Z,98756.00
2022-12-25T15:21:07.291Z,98755.16
2022-12-25T15:23:35.981Z,98748.13
2022-12-25T15:26:04.580Z,98749.78
2022-12-25T15:28:33.293Z,98726.69
2022-12-25T15:31:03.266Z,98720.50
2022-12-25T15:33:33.268Z,98718.66
2022-12-25T15:36:01.902Z,98718.66
2022-12-25T15:38:36.536Z,98708.78
2022-12-25T15:41:05.377Z,98707.09
2022-12-25T15:43:41.739Z,98706.25
2022-12-25T15:46:12.305Z,98692.88
2022-12-25T15:48:40.825Z,98683.81
2022-12-25T15:51:09.399Z,98671.44
2022-12-25T15:53:38.027Z,98679.47
2022-12-25T15:56:07.226Z,98683.00
2022-12-25T15:58:35.961Z,98690.19
2022-12-25T16:01:04.689Z,98691.03
2022-12-25T16:03:34.699Z,98684.81
2022-12-25T16:06:03.299Z,98685.66
2022-12-25T16:08:32.011Z,98684.81
2022-12-25T16:11:00.570Z,98681.28
2022-12-25T16:13:29.610Z,98682.16
2022-12-25T16:15:58.294Z,98680.31
2022-12-25T16:18:27.188Z,98685.81
2022-12-25T16:20:57.225Z,98679.47
2022-12-25T16:23:25.939Z,98682.16
2022-12-25T16:25:54.478Z,98678.59
2022-12-25T16:28:23.142Z,98670.56
2022-12-25T16:30:51.849Z,98685.81
2022-12-25T16:33:20.579Z,98684.81
2022-12-25T16:35:49.690Z,98684.81
2022-12-25T16:38:19.710Z,98680.31
2022-12-25T16:40:48.954Z,98686.63
2022-12-25T16:43:23.633Z,98689.31
2022-12-25T16:45:52.768Z,98683.97
2022-12-25T16:48:21.531Z,98673.25
2022-12-25T16:50:50.121Z,98673.25
2022-12-25T16:53:20.323Z,98677.78
2022-12-25T16:55:48.865Z,98674.94
2022-12-25T16:58:17.363Z,98670.44
2022-12-25T17:00:49.431Z,98672.41
2022-12-25T17:03:18.727Z,98662.53
2022-12-25T17:05:47.577Z,98662.97
2022-12-25T17:08:16.192Z,98659.44
2022-12-25T17:10:46.088Z,98659.50
2022-12-25T17:13:14.727Z,98664.22
2022-12-25T17:15:48.534Z,98652.16
2022-12-25T17:18:22.140Z,98645.31
2022-12-25T17:20:54.035Z,98640.44
2022-12-25T17:23:22.619Z,98627.28
2022-12-25T17:25:52.573Z,98610.75
2022-12-25T17:28:21.120Z,98606.22
2022-12-25T17:30:50.062Z,98611.28
2022-12-25T17:33:18.594Z,98602.59
2022-12-25T17:35:47.140Z,98610.63
2022-12-25T17:38:16.055Z,98616.63
2022-12-25T17:40:44.629Z,98622.63
2022-12-25T17:43:20.600Z,98620.97
2022-12-25T17:45:49.682Z,98622.63
2022-12-25T17:48:18.288Z,98621.78
2022-12-25T17:50:47.036Z,98620.78
2022-12-25T17:53:15.640Z,98623.38
2022-12-25T17:55:44.494Z,98630.75
2022-12-25T17:58:14.446Z,98618.06
2022-12-25T18:00:43.164Z,98611.38
2022-12-25T18:03:12.297Z,98611.28
2022-12-25T18:05:41.927Z,98615.59
2022-12-25T18:08:10.545Z,98615.06
2022-12-25T18:10:39.506Z,98610.84
2022-12-25T18:13:08.188Z,98605.72
2022-12-25T18:15:39.744Z,98605.13
2022-12-25T18:18:09.665Z,98599.06
2022-12-25T18:20:40.463Z,98606.28
2022-12-25T18:23:09.441Z,98620.00
2022-12-25T18:25:42.778Z,98617.16
2022-12-25T18:28:11.679Z,98619.16
2022-12-25T18:30:42.255Z,98606.91
2022-12-25T18:33:10.816Z,98594.50
2022-12-25T18:35:40.229Z,98604.25
2022-12-25T18:38:09.331Z,98608.31
2022-12-25T18:40:42.647Z,98603.97
2022-12-25T18:43:11.352Z,98601.44
2022-12-25T18:45:41.583Z,98607.94
2022-12-25T18:48:11.372Z,98606.97
2022-12-25T18:50:41.137Z,98596.25
2022-12-25T18:53:09.742Z,98598.25
2022-12-25T18:55:41.432Z,98585.84
2022-12-25T18:58:10.080Z,98584.16
2022-12-25T19:00:38.952Z,98586.81
2022-12-25T19:03:09.008Z,98588.53
2022-12-25T19:05:40.527Z,98585.00
2022-12-25T19:08:09.142Z,98576.09
2022-12-25T19:10:39.729Z,98585.00
2022-12-25T19:13:08.511Z,98587.06
2022-12-25T19:15:41.230Z,98588.63
2022-12-25T19:18:11.477Z,98586.78
2022-12-25T19:20:41.346Z,98585.28
2022-12-25T19:23:10.014Z,98587.25
2022-12-25T19:25:40.879Z,98565.03
2022-12-25T19:28:12.283Z,98572.56
2022-12-25T19:30:41.200Z,98564.13
2022-12-25T19:33:17.256Z,98565.44
2022-12-25T19:35:47.587Z,98561.75
2022-12-25T19:38:16.336Z,98560.06
2022-12-25T19:41:00.696Z,98546.53
2022-12-25T19:43:30.545Z,98550.03
2022-12-25T19:45:59.377Z,98551.03
2022-12-25T19:48:29.542Z,98561.44
2022-12-25T19:50:58.169Z,98556.81
2022-12-25T19:53:27.101Z,98551.25
2022-12-25T19:55:55.811Z,98555.47
2022-12-25T19:58:24.914Z,98551.78
2022-12-25T20:01:00.255Z,98535.72
2022-12-25T20:03:30.447Z,98526.66
2022-12-25T20:05:59.155Z,98522.97
2022-12-25T20:08:29.077Z,98510.94
2022-12-25T20:10:57.739Z,98527.69
2022-12-25T20:13:26.357Z,98516.97
2022-12-25T20:15:55.019Z,98499.03
2022-12-25T20:18:23.686Z,98509.75
2022-12-25T20:21:02.783Z,98513.28
2022-12-25T20:23:31.751Z,98512.59
2022-12-25T20:26:01.299Z,98497.69
2022-12-25T20:28:29.942Z,98511.06
2022-12-25T20:30:58.761Z,98496.16
2022-12-25T20:33:27.387Z,98497.03
2022-12-25T20:36:00.156Z,98493.81
2022-12-25T20:38:28.952Z,98491.84
2022-12-25T20:41:26.295Z,98487.31
2022-12-25T20:43:51.302Z,98486.13
2022-12-25T20:46:20.112Z,98489.16
2022-12-25T20:48:48.799Z,98483.94
2022-12-25T20:51:20.225Z,98483.09
2022-12-25T20:53:48.900Z,98479.44
2022-12-25T20:56:20.517Z,98464.34
2022-12-25T20:58:49.225Z,98462.66
2022-12-25T21:01:19.027Z,98460.81
2022-12-25T21:03:47.871Z,98464.34
2022-12-25T21:06:17.993Z,98465.53
2022-12-25T21:08:46.649Z,98475.09
2022-12-25T21:11:16.092Z,98469.56
2022-12-25T21:13:45.417Z,98451.47
2022-12-25T21:16:15.791Z,98438.06
2022-12-25T21:18:44.488Z,98422.81
2022-12-25T21:21:13.206Z,98409.56
2022-12-25T21:23:43.373Z,98420.97
2022-12-25T21:26:13.892Z,98412.09
2022-12-25T21:28:42.607Z,98429.00
2022-12-25T21:31:11.626Z,98442.28
2022-12-25T21:33:51.616Z,98445.94
2022-12-25T21:36:21.793Z,98445.09
2022-12-25T21:38:54.286Z,98447.78
2022-12-25T21:41:23.163Z,98439.75
2022-12-25T21:43:51.878Z,98442.56
2022-12-25T21:46:20.715Z,98427.34
2022-12-25T21:48:49.648Z,98425.50
2022-12-25T21:51:36.561Z,98429.00
2022-12-25T21:54:07.220Z,98425.84
2022-12-25T21:56:43.567Z,98421.13
2022-12-25T21:59:15.101Z,98412.25
2022-12-25T22:01:44.048Z,98412.44
2022-12-25T22:04:13.652Z,98403.38
2022-12-25T22:06:59.490Z,98407.72
2022-12-25T22:09:29.718Z,98415.59
2022-12-25T22:12:16.018Z,98422.81
2022-12-25T22:14:54.806Z,98419.13
2022-12-25T22:17:43.061Z,98412.09
2022-12-25T22:20:13.900Z,98401.38
2022-12-25T22:22:42.607Z,98404.03
2022-12-25T22:25:12.970Z,98412.09
2022-12-25T22:27:42.499Z,98404.03
2022-12-25T22:30:12.858Z,98396.84
2022-12-25T22:32:41.461Z,98396.00
2022-12-25T22:35:12.129Z,98398.69
2022-12-25T22:37:40.856Z,98387.97
2022-12-25T22:40:12.639Z,98384.25
2022-12-25T22:42:41.518Z,98370.03
2022-12-25T22:45:12.349Z,98367.34
2022-12-25T22:47:41.138Z,98368.16
2022-12-25T22:50:10.861Z,98364.50
2022-12-25T22:52:39.522Z,98368.84
2022-12-25T22:55:09.762Z,98376.22
2022-12-25T22:57:39.719Z,98363.97
2022-12-25T23:00:10.179Z,98368.16
2022-12-25T23:02:39.105Z,98372.22
2022-12-25T23:05:08.802Z,98383.59
2022-12-25T23:07:37.518Z,98374.56
2022-12-25T23:10:07.665Z,98374.56
2022-12-25T23:13:05.300Z,98373.72
2022-12-25T23:15:35.386Z,98373.53
2022-12-25T23:18:21.286Z,98378.06
2022-12-25T23:21:07.135Z,98374.56
2022-12-25T23:23:53.569Z,98379.09
2022-12-25T23:26:22.646Z,98381.91
2022-12-25T23:29:08.643Z,98382.75
2022-12-25T23:31:40.836Z,98381.91
2022-12-25T23:34:09.806Z,98365.81
2022-12-25T23:36:38.335Z,98368.50
2022-12-25T23:39:10.169Z,98366.66
2022-12-25T23:41:39.826Z,98359.44
2022-12-25T23:44:08.636Z,98346.03
2022-12-25T23:46:38.941Z,98334.50
2022-12-25T23:49:07.730Z,98330.97
2022-12-25T23:51:36.750Z,98319.41
2022-12-25T23:54:05.640Z,98320.25
2022-12-25T23:56:34.609Z,98307.84
2022-12-25T23:59:03.202Z,98303.31
